sensor_id;sensor_type;location;lat;lon;timestamp;pressure;altitude;pressure_sealevel;temperature;humidity
9796;BME280;4937;42.680;27.704;2024-02-21T00:01:52;102372.97;;;3.68;82.35
9796;BME280;4937;42.680;27.704;2024-02-21T00:04:18;102374.44;;;3.65;83.08
9796;BME280;4937;42.680;27.704;2024-02-21T00:06:43;102378.78;;;3.66;81.69
9796;BME280;4937;42.680;27.704;2024-02-21T00:09:09;102383.75;;;3.49;82.26
9796;BME280;4937;42.680;27.704;2024-02-21T00:11:35;102379.34;;;3.44;83.62
9796;BME280;4937;42.680;27.704;2024-02-21T00:14:00;102375.91;;;3.47;83.54
9796;BME280;4937;42.680;27.704;2024-02-21T00:16:26;102368.44;;;3.44;83.08
9796;BME280;4937;42.680;27.704;2024-02-21T00:18:52;102368.34;;;3.41;81.79
9796;BME280;4937;42.680;27.704;2024-02-21T00:21:17;102376.75;;;3.36;81.43
9796;BME280;4937;42.680;27.704;2024-02-21T00:23:44;102381.34;;;3.32;81.81
9796;BME280;4937;42.680;27.704;2024-02-21T00:26:15;102375.25;;;3.23;81.09
9796;BME280;4937;42.680;27.704;2024-02-21T00:28:40;102375.75;;;3.13;82.26
9796;BME280;4937;42.680;27.704;2024-02-21T00:31:06;102371.44;;;3.12;82.23
9796;BME280;4937;42.680;27.704;2024-02-21T00:33:32;102365.31;;;3.02;82.71
9796;BME280;4937;42.680;27.704;2024-02-21T00:35:57;102368.19;;;3.06;83.37
9796;BME280;4937;42.680;27.704;2024-02-21T00:38:23;102369.84;;;3.11;83.86
9796;BME280;4937;42.680;27.704;2024-02-21T00:40:48;102362.72;;;3.06;83.45
9796;BME280;4937;42.680;27.704;2024-02-21T00:43:14;102369.75;;;3.07;83.78
9796;BME280;4937;42.680;27.704;2024-02-21T00:45:39;102369.66;;;3.03;84.88
9796;BME280;4937;42.680;27.704;2024-02-21T00:48:05;102363.22;;;2.96;84.96
9796;BME280;4937;42.680;27.704;2024-02-21T00:50:30;102371.38;;;2.96;84.56
9796;BME280;4937;42.680;27.704;2024-02-21T00:52:57;102364.69;;;2.93;85.28
9796;BME280;4937;42.680;27.704;2024-02-21T00:55:22;102366.38;;;2.98;84.69
9796;BME280;4937;42.680;27.704;2024-02-21T00:57:48;102363.50;;;3.07;84.70
9796;BME280;4937;42.680;27.704;2024-02-21T01:00:14;102358.16;;;3.10;85.23
9796;BME280;4937;42.680;27.704;2024-02-21T01:02:39;102361.09;;;3.17;84.63
9796;BME280;4937;42.680;27.704;2024-02-21T01:05:05;102368.13;;;3.18;84.92
9796;BME280;4937;42.680;27.704;2024-02-21T01:07:31;102356.41;;;3.18;85.39
9796;BME280;4937;42.680;27.704;2024-02-21T01:09:56;102349.94;;;3.22;84.57
9796;BME280;4937;42.680;27.704;2024-02-21T01:12:25;102353.09;;;3.24;83.46
9796;BME280;4937;42.680;27.704;2024-02-21T01:14:50;102351.22;;;3.13;83.16
9796;BME280;4937;42.680;27.704;2024-02-21T01:17:16;102344.53;;;3.10;83.47
9796;BME280;4937;42.680;27.704;2024-02-21T01:19:41;102352.69;;;3.10;83.45
9796;BME280;4937;42.680;27.704;2024-02-21T01:22:07;102343.19;;;3.04;83.03
9796;BME280;4937;42.680;27.704;2024-02-21T01:24:32;102358.31;;;3.01;82.21
9796;BME280;4937;42.680;27.704;2024-02-21T01:26:58;102354.78;;;3.01;83.12
9796;BME280;4937;42.680;27.704;2024-02-21T01:29:24;102340.50;;;2.92;83.37
9796;BME280;4937;42.680;27.704;2024-02-21T01:31:49;102339.38;;;2.93;82.72
9796;BME280;4937;42.680;27.704;2024-02-21T01:34:14;102338.75;;;2.84;82.74
9796;BME280;4937;42.680;27.704;2024-02-21T01:36:40;102355.84;;;2.84;83.45
9796;BME280;4937;42.680;27.704;2024-02-21T01:39:07;102350.56;;;2.76;82.83
9796;BME280;4937;42.680;27.704;2024-02-21T01:41:32;102341.94;;;2.74;82.00
9796;BME280;4937;42.680;27.704;2024-02-21T01:43:58;102341.13;;;2.73;82.90
9796;BME280;4937;42.680;27.704;2024-02-21T01:46:24;102336.03;;;2.72;83.20
9796;BME280;4937;42.680;27.704;2024-02-21T01:48:55;102333.22;;;2.68;82.92
9796;BME280;4937;42.680;27.704;2024-02-21T01:51:21;102328.56;;;2.69;83.24
9796;BME280;4937;42.680;27.704;2024-02-21T01:53:46;102320.41;;;2.69;83.11
9796;BME280;4937;42.680;27.704;2024-02-21T01:56:12;102327.78;;;2.68;83.55
9796;BME280;4937;42.680;27.704;2024-02-21T01:58:40;102328.47;;;2.65;82.51
9796;BME280;4937;42.680;27.704;2024-02-21T02:01:06;102326.22;;;2.55;82.57
9796;BME280;4937;42.680;27.704;2024-02-21T02:03:32;102326.47;;;2.50;83.03
9796;BME280;4937;42.680;27.704;2024-02-21T02:05:58;102329.44;;;2.45;83.91
9796;BME280;4937;42.680;27.704;2024-02-21T02:08:24;102334.06;;;2.45;83.72
9796;BME280;4937;42.680;27.704;2024-02-21T02:10:50;102332.81;;;2.54;84.27
9796;BME280;4937;42.680;27.704;2024-02-21T02:13:16;102325.97;;;2.60;84.22
9796;BME280;4937;42.680;27.704;2024-02-21T02:18:08;102333.00;;;2.61;84.18
9796;BME280;4937;42.680;27.704;2024-02-21T02:20:34;102336.97;;;2.64;84.11
9796;BME280;4937;42.680;27.704;2024-02-21T02:23:12;102329.13;;;2.74;83.58
9796;BME280;4937;42.680;27.704;2024-02-21T02:25:40;102352.69;;;2.82;83.50
9796;BME280;4937;42.680;27.704;2024-02-21T02:28:06;102349.97;;;2.82;83.29
9796;BME280;4937;42.680;27.704;2024-02-21T02:30:35;102354.41;;;2.75;83.63
9796;BME280;4937;42.680;27.704;2024-02-21T02:33:02;102347.38;;;2.74;83.36
9796;BME280;4937;42.680;27.704;2024-02-21T02:35:28;102341.00;;;2.82;82.28
9796;BME280;4937;42.680;27.704;2024-02-21T02:37:54;102336.25;;;2.79;82.94
9796;BME280;4937;42.680;27.704;2024-02-21T02:40:19;102341.94;;;2.74;82.44
9796;BME280;4937;42.680;27.704;2024-02-21T02:42:45;102340.47;;;2.76;81.90
9796;BME280;4937;42.680;27.704;2024-02-21T02:45:11;102337.28;;;2.74;82.42
9796;BME280;4937;42.680;27.704;2024-02-21T02:47:36;102345.81;;;2.73;81.83
9796;BME280;4937;42.680;27.704;2024-02-21T02:50:02;102341.03;;;2.70;82.06
9796;BME280;4937;42.680;27.704;2024-02-21T02:52:28;102349.91;;;2.67;82.95
9796;BME280;4937;42.680;27.704;2024-02-21T02:54:53;102349.19;;;2.70;82.65
9796;BME280;4937;42.680;27.704;2024-02-21T02:57:21;102352.72;;;2.70;83.06
9796;BME280;4937;42.680;27.704;2024-02-21T02:59:48;102359.66;;;2.68;83.48
9796;BME280;4937;42.680;27.704;2024-02-21T03:02:14;102359.59;;;2.52;83.30
9796;BME280;4937;42.680;27.704;2024-02-21T03:04:40;102352.44;;;2.60;84.33
9796;BME280;4937;42.680;27.704;2024-02-21T03:07:06;102351.88;;;2.54;83.95
9796;BME280;4937;42.680;27.704;2024-02-21T03:09:31;102350.75;;;2.43;85.03
9796;BME280;4937;42.680;27.704;2024-02-21T03:11:57;102352.66;;;2.43;84.49
9796;BME280;4937;42.680;27.704;2024-02-21T03:14:28;102356.41;;;2.50;84.28
9796;BME280;4937;42.680;27.704;2024-02-21T03:16:54;102355.16;;;2.60;84.48
9796;BME280;4937;42.680;27.704;2024-02-21T03:19:19;102351.47;;;2.68;83.70
9796;BME280;4937;42.680;27.704;2024-02-21T03:21:45;102347.53;;;2.65;83.94
9796;BME280;4937;42.680;27.704;2024-02-21T03:24:11;102346.38;;;2.66;85.13
9796;BME280;4937;42.680;27.704;2024-02-21T03:26:36;102342.75;;;2.62;84.81
9796;BME280;4937;42.680;27.704;2024-02-21T03:29:06;102352.06;;;2.61;84.50
9796;BME280;4937;42.680;27.704;2024-02-21T03:31:31;102349.91;;;2.67;85.22
9796;BME280;4937;42.680;27.704;2024-02-21T03:33:57;102347.28;;;2.70;83.91
9796;BME280;4937;42.680;27.704;2024-02-21T03:36:22;102350.56;;;2.76;84.47
9796;BME280;4937;42.680;27.704;2024-02-21T03:38:48;102350.00;;;2.70;84.38
9796;BME280;4937;42.680;27.704;2024-02-21T03:41:13;102352.72;;;2.70;85.01
9796;BME280;4937;42.680;27.704;2024-02-21T03:43:39;102346.28;;;2.63;84.13
9796;BME280;4937;42.680;27.704;2024-02-21T03:46:05;102351.34;;;2.76;84.27
9796;BME280;4937;42.680;27.704;2024-02-21T03:48:31;102353.72;;;2.78;83.35
9796;BME280;4937;42.680;27.704;2024-02-21T03:50:58;102355.84;;;2.84;83.77
9796;BME280;4937;42.680;27.704;2024-02-21T03:53:23;102356.56;;;2.81;83.42
9796;BME280;4937;42.680;27.704;2024-02-21T03:55:49;102358.03;;;2.79;82.84
9796;BME280;4937;42.680;27.704;2024-02-21T03:58:14;102358.13;;;2.82;82.89
9796;BME280;4937;42.680;27.704;2024-02-21T04:00:40;102358.03;;;2.79;82.85
9796;BME280;4937;42.680;27.704;2024-02-21T04:03:06;102355.56;;;2.74;83.10
9796;BME280;4937;42.680;27.704;2024-02-21T04:05:32;102358.19;;;2.70;83.33
9796;BME280;4937;42.680;27.704;2024-02-21T04:07:58;102357.16;;;2.63;83.30
9796;BME280;4937;42.680;27.704;2024-02-21T04:10:24;102364.63;;;2.66;82.85
9796;BME280;4937;42.680;27.704;2024-02-21T04:12:49;102352.88;;;2.62;83.43
9796;BME280;4937;42.680;27.704;2024-02-21T04:15:16;102358.53;;;2.69;83.13
9796;BME280;4937;42.680;27.704;2024-02-21T04:17:42;102349.66;;;2.72;83.53
9796;BME280;4937;42.680;27.704;2024-02-21T04:20:14;102350.56;;;2.76;83.49
9796;BME280;4937;42.680;27.704;2024-02-21T04:22:45;102352.69;;;2.82;83.10
9796;BME280;4937;42.680;27.704;2024-02-21T04:25:11;102350.19;;;2.89;82.87
9796;BME280;4937;42.680;27.704;2024-02-21T04:27:38;102352.91;;;2.89;83.12
9796;BME280;4937;42.680;27.704;2024-02-21T04:30:05;102354.13;;;2.92;82.40
9796;BME280;4937;42.680;27.704;2024-02-21T04:32:31;102356.22;;;2.83;83.18
9796;BME280;4937;42.680;27.704;2024-02-21T04:34:57;102356.22;;;2.83;83.04
9796;BME280;4937;42.680;27.704;2024-02-21T04:37:22;102368.66;;;2.96;82.87
9796;BME280;4937;42.680;27.704;2024-02-21T04:39:49;102358.09;;;2.94;82.75
9796;BME280;4937;42.680;27.704;2024-02-21T04:42:14;102369.81;;;2.95;82.69
9796;BME280;4937;42.680;27.704;2024-02-21T04:44:40;102372.06;;;2.93;83.46
9796;BME280;4937;42.680;27.704;2024-02-21T04:47:07;102357.75;;;2.96;82.24
9796;BME280;4937;42.680;27.704;2024-02-21T04:49:34;102369.19;;;3.01;83.15
9796;BME280;4937;42.680;27.704;2024-02-21T04:52:00;102373.19;;;3.04;82.02
9796;BME280;4937;42.680;27.704;2024-02-21T04:54:26;102377.63;;;2.96;82.51
9796;BME280;4937;42.680;27.704;2024-02-21T04:56:52;102376.09;;;2.71;83.87
9796;BME280;4937;42.680;27.704;2024-02-21T04:59:18;102369.72;;;2.79;83.49
9796;BME280;4937;42.680;27.704;2024-02-21T05:01:43;102372.09;;;2.81;83.54
9796;BME280;4937;42.680;27.704;2024-02-21T05:04:09;102378.19;;;2.90;83.83
9796;BME280;4937;42.680;27.704;2024-02-21T05:06:41;102372.19;;;2.84;83.76
9796;BME280;4937;42.680;27.704;2024-02-21T05:09:08;102372.53;;;2.95;84.01
9796;BME280;4937;42.680;27.704;2024-02-21T05:11:37;102367.28;;;3.02;83.39
9796;BME280;4937;42.680;27.704;2024-02-21T05:14:05;102376.78;;;3.08;82.33
9796;BME280;4937;42.680;27.704;2024-02-21T05:16:32;102373.38;;;3.11;82.26
9796;BME280;4937;42.680;27.704;2024-02-21T05:18:57;102380.16;;;3.17;82.52
9796;BME280;4937;42.680;27.704;2024-02-21T05:21:24;102382.44;;;3.15;83.02
9796;BME280;4937;42.680;27.704;2024-02-21T05:23:50;102387.94;;;3.31;82.93
9796;BME280;4937;42.680;27.704;2024-02-21T05:26:23;102375.81;;;3.44;82.31
9796;BME280;4937;42.680;27.704;2024-02-21T05:28:49;102378.94;;;3.58;82.13
9796;BME280;4937;42.680;27.704;2024-02-21T05:31:16;102388.38;;;3.76;80.57
9796;BME280;4937;42.680;27.704;2024-02-21T05:33:43;102384.34;;;3.85;80.28
9796;BME280;4937;42.680;27.704;2024-02-21T05:36:08;102396.91;;;3.90;80.26
9796;BME280;4937;42.680;27.704;2024-02-21T05:38:34;102394.19;;;4.06;79.80
9796;BME280;4937;42.680;27.704;2024-02-21T05:41:00;102396.75;;;4.14;78.76
9796;BME280;4937;42.680;27.704;2024-02-21T05:43:26;102405.09;;;4.21;78.57
9796;BME280;4937;42.680;27.704;2024-02-21T05:45:51;102408.09;;;4.16;78.57
9796;BME280;4937;42.680;27.704;2024-02-21T05:48:17;102407.19;;;4.43;77.57
9796;BME280;4937;42.680;27.704;2024-02-21T05:50:42;102399.72;;;4.40;77.78
9796;BME280;4937;42.680;27.704;2024-02-21T05:53:08;102401.28;;;4.41;77.63
9796;BME280;4937;42.680;27.704;2024-02-21T05:55:35;102405.78;;;4.49;78.07
9796;BME280;4937;42.680;27.704;2024-02-21T05:58:00;102405.97;;;4.41;78.27
9796;BME280;4937;42.680;27.704;2024-02-21T06:00:27;102410.06;;;4.50;77.82
9796;BME280;4937;42.680;27.704;2024-02-21T06:02:53;102414.41;;;4.51;79.11
9796;BME280;4937;42.680;27.704;2024-02-21T06:05:19;102401.63;;;4.55;78.08
9796;BME280;4937;42.680;27.704;2024-02-21T06:07:44;102412.56;;;4.55;77.40
9796;BME280;4937;42.680;27.704;2024-02-21T06:10:10;102402.47;;;4.59;78.20
9796;BME280;4937;42.680;27.704;2024-02-21T06:12:35;102405.13;;;4.56;77.67
9796;BME280;4937;42.680;27.704;2024-02-21T06:15:01;102409.03;;;4.55;77.70
9796;BME280;4937;42.680;27.704;2024-02-21T06:17:26;102422.75;;;4.58;78.94
9796;BME280;4937;42.680;27.704;2024-02-21T06:19:52;102419.78;;;4.48;78.24
9796;BME280;4937;42.680;27.704;2024-02-21T06:22:17;102427.44;;;4.58;77.35
9796;BME280;4937;42.680;27.704;2024-02-21T06:24:43;102419.28;;;4.42;79.62
9796;BME280;4937;42.680;27.704;2024-02-21T06:27:10;102427.19;;;4.47;79.38
9796;BME280;4937;42.680;27.704;2024-02-21T06:29:37;102431.16;;;4.50;79.68
9796;BME280;4937;42.680;27.704;2024-02-21T06:32:02;102425.78;;;4.53;79.10
9796;BME280;4937;42.680;27.704;2024-02-21T06:34:28;102433.25;;;4.56;79.62
9796;BME280;4937;42.680;27.704;2024-02-21T06:36:53;102435.53;;;4.54;80.04
9796;BME280;4937;42.680;27.704;2024-02-21T06:39:19;102434.28;;;4.67;79.15
9796;BME280;4937;42.680;27.704;2024-02-21T06:41:45;102423.94;;;4.76;79.80
9796;BME280;4937;42.680;27.704;2024-02-21T06:44:10;102425.34;;;4.86;79.55
9796;BME280;4937;42.680;27.704;2024-02-21T06:46:36;102425.56;;;4.96;78.77
9796;BME280;4937;42.680;27.704;2024-02-21T06:49:02;102416.75;;;5.03;78.41
9796;BME280;4937;42.680;27.704;2024-02-21T06:51:29;102427.59;;;5.19;77.25
9796;BME280;4937;42.680;27.704;2024-02-21T06:53:55;102421.25;;;5.34;77.94
9796;BME280;4937;42.680;27.704;2024-02-21T06:56:24;102421.41;;;5.41;76.81
9796;BME280;4937;42.680;27.704;2024-02-21T06:58:57;102420.53;;;5.56;77.13
9796;BME280;4937;42.680;27.704;2024-02-21T07:01:23;102421.31;;;5.56;77.88
9796;BME280;4937;42.680;27.704;2024-02-21T07:03:49;102422.50;;;5.78;76.89
9796;BME280;4937;42.680;27.704;2024-02-21T07:06:15;102422.06;;;5.95;75.84
9796;BME280;4937;42.680;27.704;2024-02-21T07:08:41;102432.53;;;6.12;75.27
9796;BME280;4937;42.680;27.704;2024-02-21T07:11:06;102426.75;;;6.17;76.04
9796;BME280;4937;42.680;27.704;2024-02-21T07:13:32;102419.56;;;6.32;74.76
9796;BME280;4937;42.680;27.704;2024-02-21T07:15:58;102420.94;;;6.45;74.44
9796;BME280;4937;42.680;27.704;2024-02-21T07:18:23;102426.94;;;6.54;74.64
9796;BME280;4937;42.680;27.704;2024-02-21T07:20:51;102428.22;;;6.60;74.05
9796;BME280;4937;42.680;27.704;2024-02-21T07:23:17;102434.59;;;6.67;73.81
9796;BME280;4937;42.680;27.704;2024-02-21T07:25:42;102435.22;;;6.83;73.62
9796;BME280;4937;42.680;27.704;2024-02-21T07:28:08;102429.34;;;6.85;73.68
9796;BME280;4937;42.680;27.704;2024-02-21T07:30:33;102427.09;;;6.90;73.65
9796;BME280;4937;42.680;27.704;2024-02-21T07:32:59;102434.25;;;6.98;73.91
9796;BME280;4937;42.680;27.704;2024-02-21T07:35:27;102432.19;;;6.92;74.05
9796;BME280;4937;42.680;27.704;2024-02-21T07:37:52;102416.78;;;7.10;72.87
9796;BME280;4937;42.680;27.704;2024-02-21T07:40:18;102420.84;;;7.23;73.22
9796;BME280;4937;42.680;27.704;2024-02-21T07:42:43;102422.94;;;7.33;72.74
9796;BME280;4937;42.680;27.704;2024-02-21T07:45:09;102420.69;;;7.42;72.82
9796;BME280;4937;42.680;27.704;2024-02-21T07:47:36;102428.63;;;7.51;72.21
9796;BME280;4937;42.680;27.704;2024-02-21T07:50:02;102433.03;;;7.59;72.11
9796;BME280;4937;42.680;27.704;2024-02-21T07:52:28;102426.13;;;7.72;72.34
9796;BME280;4937;42.680;27.704;2024-02-21T07:54:54;102424.28;;;7.83;71.48
9796;BME280;4937;42.680;27.704;2024-02-21T07:57:19;102421.19;;;7.91;70.93
9796;BME280;4937;42.680;27.704;2024-02-21T07:59:45;102430.31;;;7.99;70.75
9796;BME280;4937;42.680;27.704;2024-02-21T08:02:14;102427.59;;;8.02;70.92
9796;BME280;4937;42.680;27.704;2024-02-21T08:04:39;102434.28;;;8.05;70.99
9796;BME280;4937;42.680;27.704;2024-02-21T08:07:05;102430.00;;;8.08;70.95
9796;BME280;4937;42.680;27.704;2024-02-21T08:09:32;102428.91;;;8.19;71.07
9796;BME280;4937;42.680;27.704;2024-02-21T08:11:58;102436.13;;;8.34;69.73
9796;BME280;4937;42.680;27.704;2024-02-21T08:14:24;102437.25;;;8.26;70.44
9796;BME280;4937;42.680;27.704;2024-02-21T08:16:53;102428.88;;;8.59;68.96
9796;BME280;4937;42.680;27.704;2024-02-21T08:19:20;102433.34;;;8.81;68.43
9796;BME280;4937;42.680;27.704;2024-02-21T08:21:45;102436.19;;;9.02;66.90
9796;BME280;4937;42.680;27.704;2024-02-21T08:24:14;102433.91;;;9.15;66.91
9796;BME280;4937;42.680;27.704;2024-02-21T08:26:43;102435.13;;;9.28;66.63
9796;BME280;4937;42.680;27.704;2024-02-21T08:29:12;102434.81;;;9.44;65.22
9796;BME280;4937;42.680;27.704;2024-02-21T08:31:37;102428.13;;;9.48;66.09
9796;BME280;4937;42.680;27.704;2024-02-21T08:34:03;102431.34;;;9.64;65.01
9796;BME280;4937;42.680;27.704;2024-02-21T08:36:33;102430.16;;;9.69;65.64
9796;BME280;4937;42.680;27.704;2024-02-21T08:38:59;102431.03;;;10.22;64.12
9796;BME280;4937;42.680;27.704;2024-02-21T08:41:25;102430.25;;;10.60;62.93
9796;BME280;4937;42.680;27.704;2024-02-21T08:43:52;102431.72;;;11.04;61.28
9796;BME280;4937;42.680;27.704;2024-02-21T08:46:22;102434.34;;;11.39;59.46
9796;BME280;4937;42.680;27.704;2024-02-21T08:48:50;102422.75;;;11.72;59.12
9796;BME280;4937;42.680;27.704;2024-02-21T08:51:17;102424.16;;;11.98;57.58
9796;BME280;4937;42.680;27.704;2024-02-21T08:53:43;102425.53;;;12.23;56.59
9796;BME280;4937;42.680;27.704;2024-02-21T08:56:09;102426.91;;;12.45;55.53
9796;BME280;4937;42.680;27.704;2024-02-21T08:58:36;102426.56;;;12.80;54.70
9796;BME280;4937;42.680;27.704;2024-02-21T09:01:03;102427.72;;;13.24;53.52
9796;BME280;4937;42.680;27.704;2024-02-21T09:03:36;102426.78;;;13.64;51.45
9796;BME280;4937;42.680;27.704;2024-02-21T09:06:02;102422.53;;;13.82;51.01
9796;BME280;4937;42.680;27.704;2024-02-21T09:08:28;102422.63;;;14.02;49.77
9796;BME280;4937;42.680;27.704;2024-02-21T09:10:53;102423.06;;;14.27;49.43
9796;BME280;4937;42.680;27.704;2024-02-21T09:13:19;102415.97;;;14.69;48.89
9796;BME280;4937;42.680;27.704;2024-02-21T09:15:44;102424.41;;;15.24;47.43
9796;BME280;4937;42.680;27.704;2024-02-21T09:18:10;102413.84;;;16.23;45.81
9796;BME280;4937;42.680;27.704;2024-02-21T09:20:36;102424.31;;;18.71;40.26
9796;BME280;4937;42.680;27.704;2024-02-21T09:23:03;102428.03;;;21.34;34.74
9796;BME280;4937;42.680;27.704;2024-02-21T09:25:29;102432.69;;;23.20;30.94
9796;BME280;4937;42.680;27.704;2024-02-21T09:27:55;102427.94;;;24.39;28.69
9796;BME280;4937;42.680;27.704;2024-02-21T09:30:23;102427.28;;;24.70;27.77
9796;BME280;4937;42.680;27.704;2024-02-21T09:32:49;102428.03;;;24.45;27.71
9796;BME280;4937;42.680;27.704;2024-02-21T09:35:14;102417.81;;;24.27;27.78
9796;BME280;4937;42.680;27.704;2024-02-21T09:37:40;102415.44;;;23.42;28.22
9796;BME280;4937;42.680;27.704;2024-02-21T09:40:06;102416.31;;;22.42;29.64
9796;BME280;4937;42.680;27.704;2024-02-21T09:42:40;102410.69;;;22.19;29.67
9796;BME280;4937;42.680;27.704;2024-02-21T09:45:08;102419.19;;;22.57;30.65
9796;BME280;4937;42.680;27.704;2024-02-21T09:48:02;102412.03;;;23.09;28.94
9796;BME280;4937;42.680;27.704;2024-02-21T09:50:34;102413.28;;;23.22;28.60
9796;BME280;4937;42.680;27.704;2024-02-21T09:53:01;102406.72;;;21.69;30.95
9796;BME280;4937;42.680;27.704;2024-02-21T09:55:29;102409.22;;;21.07;32.89
9796;BME280;4937;42.680;27.704;2024-02-21T09:57:58;102401.44;;;21.53;32.68
9796;BME280;4937;42.680;27.704;2024-02-21T10:00:24;102402.59;;;21.37;32.02
9796;BME280;4937;42.680;27.704;2024-02-21T10:02:50;102407.00;;;21.20;31.83
9796;BME280;4937;42.680;27.704;2024-02-21T10:05:16;102403.13;;;21.00;31.90
9796;BME280;4937;42.680;27.704;2024-02-21T10:07:43;102397.22;;;20.34;33.17
9796;BME280;4937;42.680;27.704;2024-02-21T10:10:09;102399.84;;;20.38;33.99
9796;BME280;4937;42.680;27.704;2024-02-21T10:12:35;102395.41;;;20.10;34.46
9796;BME280;4937;42.680;27.704;2024-02-21T10:15:06;102394.69;;;20.36;34.16
9796;BME280;4937;42.680;27.704;2024-02-21T10:17:32;102384.59;;;20.66;34.96
9796;BME280;4937;42.680;27.704;2024-02-21T10:20:11;102385.00;;;21.37;32.12
9796;BME280;4937;42.680;27.704;2024-02-21T10:22:37;102374.47;;;21.14;33.00
9796;BME280;4937;42.680;27.704;2024-02-21T10:25:11;102376.81;;;21.06;32.89
9796;BME280;4937;42.680;27.704;2024-02-21T10:27:38;102378.22;;;20.65;32.95
9796;BME280;4937;42.680;27.704;2024-02-21T10:30:06;102374.00;;;20.70;33.58
9796;BME280;4937;42.680;27.704;2024-02-21T10:32:32;102372.53;;;20.02;34.11
9796;BME280;4937;42.680;27.704;2024-02-21T10:35:04;102368.44;;;19.94;35.67
9796;BME280;4937;42.680;27.704;2024-02-21T10:37:30;102360.31;;;20.36;33.92
9796;BME280;4937;42.680;27.704;2024-02-21T10:39:58;102367.09;;;20.17;34.65
9796;BME280;4937;42.680;27.704;2024-02-21T10:42:29;102361.63;;;19.95;35.36
9796;BME280;4937;42.680;27.704;2024-02-21T10:45:00;102360.53;;;19.44;35.78
9796;BME280;4937;42.680;27.704;2024-02-21T10:47:28;102344.66;;;16.53;43.47
9796;BME280;4937;42.680;27.704;2024-02-21T10:50:03;102346.78;;;15.85;45.90
9796;BME280;4937;42.680;27.704;2024-02-21T10:52:38;102341.81;;;14.69;48.49
9796;BME280;4937;42.680;27.704;2024-02-21T10:55:10;102340.75;;;14.17;50.93
9796;BME280;4937;42.680;27.704;2024-02-21T10:57:39;102336.63;;;13.56;52.62
9796;BME280;4937;42.680;27.704;2024-02-21T11:00:05;102339.03;;;13.27;52.17
9796;BME280;4937;42.680;27.704;2024-02-21T11:02:34;102336.84;;;13.12;51.65
9796;BME280;4937;42.680;27.704;2024-02-21T11:05:01;102337.97;;;13.18;51.69
9796;BME280;4937;42.680;27.704;2024-02-21T11:07:29;102332.53;;;12.77;53.25
9796;BME280;4937;42.680;27.704;2024-02-21T11:09:57;102326.84;;;11.72;59.66
9796;BME280;4937;42.680;27.704;2024-02-21T11:12:25;102327.19;;;11.13;61.08
9796;BME280;4937;42.680;27.704;2024-02-21T11:14:51;102329.81;;;10.01;64.63
9796;BME280;4937;42.680;27.704;2024-02-21T11:17:17;102323.94;;;9.89;66.57
9796;BME280;4937;42.680;27.704;2024-02-21T11:19:43;102332.59;;;10.09;65.71
9796;BME280;4937;42.680;27.704;2024-02-21T11:22:16;102323.94;;;9.78;67.70
9796;BME280;4937;42.680;27.704;2024-02-21T11:24:43;102320.41;;;10.17;66.47
9796;BME280;4937;42.680;27.704;2024-02-21T11:27:09;102318.44;;;10.21;67.12
9796;BME280;4937;42.680;27.704;2024-02-21T11:29:48;102326.59;;;10.73;65.03
9796;BME280;4937;42.680;27.704;2024-02-21T11:32:17;102317.38;;;12.14;60.16
9796;BME280;4937;42.680;27.704;2024-02-21T11:35:02;102313.19;;;13.34;55.69
9796;BME280;4937;42.680;27.704;2024-02-21T11:37:32;102314.09;;;14.23;53.11
9796;BME280;4937;42.680;27.704;2024-02-21T11:40:04;102306.47;;;15.45;49.46
9796;BME280;4937;42.680;27.704;2024-02-21T11:42:32;102315.13;;;16.11;47.73
9796;BME280;4937;42.680;27.704;2024-02-21T11:45:00;102319.41;;;16.73;45.56
9796;BME280;4937;42.680;27.704;2024-02-21T11:47:27;102314.81;;;15.93;46.94
9796;BME280;4937;42.680;27.704;2024-02-21T11:49:53;102303.38;;;16.64;45.67
9796;BME280;4937;42.680;27.704;2024-02-21T11:52:21;102311.94;;;16.99;42.76
9796;BME280;4937;42.680;27.704;2024-02-21T11:54:53;102307.84;;;16.46;45.05
9796;BME280;4937;42.680;27.704;2024-02-21T11:57:21;102312.56;;;15.88;46.32
9796;BME280;4937;42.680;27.704;2024-02-21T11:59:46;102302.47;;;15.94;46.32
9796;BME280;4937;42.680;27.704;2024-02-21T12:02:12;102296.19;;;16.06;45.68
9796;BME280;4937;42.680;27.704;2024-02-21T12:04:38;102291.03;;;16.78;43.56
9796;BME280;4937;42.680;27.704;2024-02-21T12:07:04;102291.78;;;15.93;45.55
9796;BME280;4937;42.680;27.704;2024-02-21T12:09:30;102288.56;;;15.94;45.49
9796;BME280;4937;42.680;27.704;2024-02-21T12:12:01;102279.56;;;16.19;46.05
9796;BME280;4937;42.680;27.704;2024-02-21T12:14:29;102282.28;;;16.06;45.25
9796;BME280;4937;42.680;27.704;2024-02-21T12:16:56;102276.41;;;16.45;45.01
9796;BME280;4937;42.680;27.704;2024-02-21T12:19:21;102280.69;;;15.60;46.58
9796;BME280;4937;42.680;27.704;2024-02-21T12:21:48;102274.50;;;15.01;48.48
9796;BME280;4937;42.680;27.704;2024-02-21T12:24:22;102276.06;;;14.01;51.04
9796;BME280;4937;42.680;27.704;2024-02-21T12:26:51;102270.53;;;14.01;51.54
9796;BME280;4937;42.680;27.704;2024-02-21T12:29:20;102264.91;;;13.35;53.64
9796;BME280;4937;42.680;27.704;2024-02-21T12:31:46;102270.06;;;12.76;55.61
9796;BME280;4937;42.680;27.704;2024-02-21T12:34:13;102269.69;;;12.03;58.37
9796;BME280;4937;42.680;27.704;2024-02-21T12:36:43;102267.19;;;12.16;59.43
9796;BME280;4937;42.680;27.704;2024-02-21T12:39:09;102259.19;;;11.36;61.19
9796;BME280;4937;42.680;27.704;2024-02-21T12:41:36;102258.63;;;11.04;63.23
9796;BME280;4937;42.680;27.704;2024-02-21T12:44:04;102258.00;;;10.68;63.94
9796;BME280;4937;42.680;27.704;2024-02-21T12:46:35;102257.19;;;10.78;64.55
9796;BME280;4937;42.680;27.704;2024-02-21T12:49:04;102255.72;;;10.56;64.73
9796;BME280;4937;42.680;27.704;2024-02-21T12:51:30;102256.22;;;10.27;67.25
9796;BME280;4937;42.680;27.704;2024-02-21T12:53:56;102263.72;;;10.19;66.26
9796;BME280;4937;42.680;27.704;2024-02-21T12:56:22;102254.28;;;9.78;68.49
9796;BME280;4937;42.680;27.704;2024-02-21T12:58:49;102263.69;;;10.26;67.70
9796;BME280;4937;42.680;27.704;2024-02-21T13:01:14;102251.47;;;10.31;67.77
9796;BME280;4937;42.680;27.704;2024-02-21T13:03:41;102235.25;;;10.50;65.93
9796;BME280;4937;42.680;27.704;2024-02-21T13:06:06;102238.38;;;10.52;66.81
9796;BME280;4937;42.680;27.704;2024-02-21T13:08:36;102245.06;;;10.58;66.94